createdAt,value
2023-04-11T00:01:19.381Z,8.37
2023-04-11T00:06:21.054Z,8.27
2023-04-11T00:11:22.909Z,7.67
2023-04-11T00:16:26.647Z,10.17
2023-04-11T00:21:28.582Z,8.50
2023-04-11T00:26:30.329Z,8.53
2023-04-11T00:31:32.436Z,7.97
2023-04-11T00:36:34.275Z,8.50
2023-04-11T00:41:36.062Z,7.73
2023-04-11T00:46:39.520Z,8.17
2023-04-11T00:51:41.228Z,8.40
2023-04-11T00:56:43.446Z,10.03
2023-04-11T01:01:45.222Z,8.13
2023-04-11T01:06:51.346Z,7.63
2023-04-11T01:11:53.831Z,8.90
2023-04-11T01:16:56.737Z,7.93
2023-04-11T01:21:59.668Z,7.83
2023-04-11T01:27:02.226Z,8.57
2023-04-11T01:32:04.124Z,8.50
2023-04-11T01:37:06.233Z,10.00
2023-04-11T01:42:09.137Z,10.83
2023-04-11T01:47:11.289Z,9.83
2023-04-11T01:52:13.016Z,11.80
2023-04-11T01:57:14.692Z,9.43
2023-04-11T02:02:16.545Z,9.63
2023-04-11T02:07:18.648Z,10.23
2023-04-11T02:12:20.609Z,9.83
2023-04-11T02:17:25.865Z,10.63
2023-04-11T02:22:27.615Z,11.00
2023-04-11T02:27:29.355Z,9.20
2023-04-11T02:32:32.255Z,10.33
2023-04-11T02:37:34.842Z,9.50
2023-04-11T02:42:36.939Z,9.23
2023-04-11T02:47:39.594Z,9.40
2023-04-11T02:52:42.197Z,9.80
2023-04-11T02:57:43.866Z,9.73
2023-04-11T03:02:46.004Z,8.00
2023-04-11T03:07:47.863Z,8.67
2023-04-11T03:12:49.603Z,9.27
2023-04-11T03:17:51.397Z,8.20
2023-04-11T03:22:53.123Z,11.07
2023-04-11T03:27:54.930Z,8.27
2023-04-11T03:33:00.954Z,8.13
2023-04-11T03:38:03.187Z,10.10
2023-04-11T03:43:05.072Z,6.97
2023-04-11T03:48:06.965Z,8.40
2023-04-11T03:53:08.711Z,8.00
2023-04-11T03:58:11.809Z,7.60
2023-04-11T04:03:13.905Z,7.30
2023-04-11T04:08:15.774Z,7.73
2023-04-11T04:13:17.543Z,8.37
2023-04-11T04:18:19.190Z,8.20
2023-04-11T04:23:20.884Z,6.47
2023-04-11T04:28:22.837Z,8.73
2023-04-11T04:33:25.806Z,8.80
2023-04-11T04:38:29.600Z,11.03
2023-04-11T04:43:32.896Z,9.33
2023-04-11T04:48:34.531Z,8.90
2023-04-11T04:53:38.825Z,9.27
2023-04-11T04:58:40.759Z,8.73
2023-04-11T05:03:42.477Z,5.23
2023-04-11T05:08:44.324Z,6.30
2023-04-11T05:13:45.996Z,6.80
2023-04-11T05:18:47.926Z,5.83
2023-04-11T05:23:49.698Z,6.33
2023-04-11T05:28:51.683Z,6.10
2023-04-11T05:33:53.511Z,6.17
2023-04-11T05:38:55.676Z,6.40
2023-04-11T05:43:57.611Z,5.63
2023-04-11T05:49:00.922Z,7.73
2023-04-11T05:54:02.617Z,6.80
2023-04-11T05:59:04.917Z,8.17
2023-04-11T06:04:06.705Z,7.77
2023-04-11T06:09:09.093Z,7.17
2023-04-11T06:14:10.761Z,5.67
2023-04-11T06:19:12.545Z,6.50
2023-04-11T06:24:18.172Z,8.50
2023-04-11T06:29:19.836Z,7.07
2023-04-11T06:34:21.563Z,6.77
2023-04-11T06:39:23.206Z,6.77
2023-04-11T06:44:25.162Z,6.30
2023-04-11T06:49:28.289Z,14.27
2023-04-11T06:54:29.985Z,7.40
2023-04-11T06:59:32.371Z,6.40
2023-04-11T07:04:34.270Z,6.97
2023-04-11T07:09:36.658Z,6.73
2023-04-11T07:14:38.338Z,8.37
2023-04-11T07:19:40.617Z,10.30
2023-04-11T07:24:43.590Z,8.20
2023-04-11T07:29:45.768Z,10.40
2023-04-11T07:34:47.445Z,10.53
2023-04-11T07:39:49.259Z,12.13
2023-04-11T07:44:50.975Z,9.87
2023-04-11T07:49:52.751Z,7.80
2023-04-11T07:54:54.520Z,9.00
2023-04-11T07:59:59.164Z,8.60
2023-04-11T08:05:01.161Z,9.67
2023-04-11T08:10:02.942Z,8.23
2023-04-11T08:15:05.050Z,13.90
2023-04-11T08:20:12.025Z,11.73
2023-04-11T08:25:14.937Z,10.90
2023-04-11T08:30:17.391Z,9.57
2023-04-11T08:35:19.055Z,8.70
2023-04-11T08:40:20.780Z,6.80
2023-04-11T08:45:23.812Z,9.83
2023-04-11T08:50:26.257Z,7.87
2023-04-11T08:55:28.271Z,9.13
2023-04-11T09:00:32.362Z,7.53
2023-04-11T09:05:39.637Z,9.73
2023-04-11T09:10:45.407Z,12.60
2023-04-11T09:15:47.835Z,7.40
2023-04-11T09:21:00.967Z,7.67
2023-04-11T09:26:04.675Z,10.37
2023-04-11T09:31:06.942Z,10.73
2023-04-11T09:36:20.179Z,10.93
2023-04-11T09:41:32.638Z,9.97
2023-04-11T09:46:34.394Z,11.03
2023-04-11T09:51:37.384Z,10.97
2023-04-11T09:56:39.884Z,12.40
2023-04-11T10:01:42.365Z,9.70
2023-04-11T10:06:54.033Z,11.47
2023-04-11T10:11:55.817Z,10.03
2023-04-11T10:17:22.131Z,9.90
2023-04-11T10:22:43.932Z,9.93
2023-04-11T10:27:53.670Z,13.17
2023-04-11T10:33:11.519Z,8.77
2023-04-11T10:38:48.898Z,7.50
2023-04-11T10:43:51.679Z,12.90
2023-04-11T10:49:05.813Z,9.30
2023-04-11T10:54:26.059Z,12.23
2023-04-11T10:59:34.434Z,9.30
2023-04-11T11:04:40.071Z,9.40
2023-04-11T11:09:47.303Z,12.83
2023-04-11T11:14:48.987Z,11.90
2023-04-11T11:19:50.779Z,11.30
2023-04-11T11:24:52.785Z,9.37
2023-04-11T11:29:54.495Z,10.37
2023-04-11T11:34:57.538Z,10.47
2023-04-11T11:39:59.606Z,9.77
2023-04-11T11:45:21.741Z,9.87
2023-04-11T11:50:31.121Z,10.43
2023-04-11T11:55:33.302Z,8.13
2023-04-11T12:00:41.429Z,12.17
2023-04-11T12:05:44.220Z,9.83
2023-04-11T12:10:47.211Z,11.40
2023-04-11T12:15:54.726Z,11.93
2023-04-11T12:20:56.575Z,8.70
2023-04-11T12:25:58.455Z,10.67
2023-04-11T12:31:00.198Z,9.07
2023-04-11T12:36:02.282Z,11.83
2023-04-11T12:41:19.855Z,11.17
2023-04-11T12:46:26.323Z,8.57
2023-04-11T12:51:28.110Z,8.90
2023-04-11T12:56:29.988Z,11.73
2023-04-11T13:01:31.745Z,10.77
2023-04-11T13:06:33.490Z,9.13
2023-04-11T13:11:35.343Z,12.07
2023-04-11T13:16:37.112Z,10.80
2023-04-11T13:21:38.796Z,12.30
2023-04-11T13:26:40.678Z,14.60
2023-04-11T13:31:42.436Z,9.03
2023-04-11T13:36:44.343Z,11.93
2023-04-11T13:41:46.116Z,11.87
2023-04-11T13:46:47.755Z,11.97
2023-04-11T13:51:49.457Z,9.63
2023-04-11T13:56:51.137Z,9.40
2023-04-11T14:01:52.961Z,9.60
2023-04-11T14:06:55.379Z,11.37
2023-04-11T14:11:57.732Z,10.13
2023-04-11T14:16:59.417Z,9.77
2023-04-11T14:22:01.577Z,13.57
2023-04-11T14:27:04.152Z,7.63
2023-04-11T14:32:07.078Z,9.30
2023-04-11T14:37:08.909Z,10.40
2023-04-11T14:42:10.712Z,11.20
2023-04-11T14:47:12.420Z,10.33
2023-04-11T14:52:14.267Z,10.70
2023-04-11T14:57:16.309Z,8.43
2023-04-11T15:02:18.163Z,9.47
2023-04-11T15:07:19.977Z,10.70
2023-04-11T15:12:21.627Z,9.97
2023-04-11T15:17:23.364Z,11.50
2023-04-11T15:22:26.308Z,10.47
2023-04-11T15:27:28.043Z,9.33
2023-04-11T15:32:30.069Z,13.33
2023-04-11T15:37:32.751Z,10.70
2023-04-11T15:42:35.445Z,9.67
2023-04-11T15:47:37.299Z,10.43
2023-04-11T15:52:38.998Z,11.33
2023-04-11T15:57:40.935Z,9.67
2023-04-11T16:02:46.689Z,11.57
2023-04-11T16:07:49.070Z,9.93
2023-04-11T16:12:50.879Z,11.97
2023-04-11T16:17:52.577Z,11.77
2023-04-11T16:22:54.247Z,10.30
2023-04-11T16:27:55.901Z,11.07
2023-04-11T16:32:57.836Z,9.23
2023-04-11T16:37:59.570Z,10.27
2023-04-11T16:43:01.937Z,10.00
2023-04-11T16:48:03.841Z,12.87
2023-04-11T16:53:06.452Z,9.27
2023-04-11T16:58:08.888Z,9.87
2023-04-11T17:03:10.705Z,11.23
2023-04-11T17:08:13.378Z,10.30
2023-04-11T17:13:15.986Z,9.13
2023-04-11T17:18:17.755Z,12.43
2023-04-11T17:23:23.961Z,11.90
2023-04-11T17:28:30.914Z,10.60
2023-04-11T17:33:32.578Z,9.67
2023-04-11T17:38:34.293Z,11.43
2023-04-11T17:43:36.006Z,12.87
2023-04-11T17:48:37.767Z,11.20
2023-04-11T17:53:39.506Z,14.33
2023-04-11T17:58:44.696Z,10.83
2023-04-11T18:03:47.004Z,12.43
2023-04-11T18:08:51.371Z,10.13
2023-04-11T18:13:53.657Z,12.90
2023-04-11T18:18:55.410Z,12.97
2023-04-11T18:23:57.253Z,17.87
2023-04-11T18:29:00.394Z,49.13
2023-04-11T18:34:03.361Z,56.80
2023-04-11T18:39:05.778Z,21.23
2023-04-11T18:44:09.785Z,18.40
2023-04-11T18:49:13.436Z,14.80
2023-04-11T18:54:15.847Z,17.40
2023-04-11T18:59:21.342Z,26.97
2023-04-11T19:04:24.726Z,21.93
2023-04-11T19:09:27.910Z,20.83
2023-04-11T19:14:29.596Z,16.93
2023-04-11T19:19:31.359Z,23.03
2023-04-11T19:24:33.074Z,33.60
2023-04-11T19:29:34.768Z,33.50
2023-04-11T19:34:36.437Z,20.97
2023-04-11T19:39:39.031Z,37.63
2023-04-11T19:44:40.926Z,16.43
2023-04-11T19:49:42.659Z,14.07
2023-04-11T19:54:44.906Z,22.57
2023-04-11T19:59:46.541Z,12.40
2023-04-11T20:04:49.412Z,16.27
2023-04-11T20:09:51.689Z,15.37
2023-04-11T20:14:53.420Z,58.50
2023-04-11T20:19:55.678Z,20.17
2023-04-11T20:24:57.353Z,16.97
2023-04-11T20:29:59.123Z,21.87
2023-04-11T20:35:01.739Z,18.30
2023-04-11T20:40:06.995Z,22.70
2023-04-11T20:45:10.873Z,45.20
2023-04-11T20:50:14.689Z,20.93
2023-04-11T20:55:16.519Z,15.93
2023-04-11T21:00:19.676Z,19.67
2023-04-11T21:05:25.101Z,19.70
2023-04-11T21:10:26.974Z,9.33
2023-04-11T21:15:28.724Z,12.63
2023-04-11T21:20:30.493Z,11.10
2023-04-11T21:25:32.270Z,11.57
2023-04-11T21:30:33.955Z,12.73
2023-04-11T21:35:35.664Z,9.80
2023-04-11T21:40:37.343Z,13.57
2023-04-11T21:45:39.165Z,9.73
2023-04-11T21:50:40.971Z,13.30
2023-04-11T21:55:46.693Z,12.10
2023-04-11T22:00:48.415Z,12.17
2023-04-11T22:05:50.695Z,12.00
2023-04-11T22:10:52.548Z,14.63
2023-04-11T22:16:05.165Z,10.20
2023-04-11T22:21:09.387Z,10.47
2023-04-11T22:26:11.144Z,11.37
2023-04-11T22:31:13.616Z,11.17
2023-04-11T22:36:16.100Z,11.37
2023-04-11T22:41:17.937Z,10.37
2023-04-11T22:46:19.976Z,9.60
2023-04-11T22:51:25.378Z,10.03
2023-04-11T22:56:27.042Z,8.27
2023-04-11T23:01:28.969Z,7.97
2023-04-11T23:06:30.655Z,8.47
2023-04-11T23:11:32.521Z,8.07
2023-04-11T23:16:34.280Z,8.97
2023-04-11T23:21:37.735Z,11.27
2023-04-11T23:26:39.441Z,9.37
2023-04-11T23:31:41.079Z,8.73
2023-04-11T23:36:43.368Z,9.83
2023-04-11T23:41:45.196Z,9.63
2023-04-11T23:46:46.865Z,8.47
2023-04-11T23:51:48.590Z,8.60
2023-04-11T23:56:50.815Z,10.33
